createdAt,value
2023-03-06T00:00:48.903Z,-0.08
2023-03-06T00:03:22.878Z,-0.05
2023-03-06T00:05:53.630Z,-0.02
2023-03-06T00:08:24.887Z,-0.02
2023-03-06T00:10:54.546Z,-0.01
2023-03-06T00:13:25.919Z,-0.03
2023-03-06T00:16:00.055Z,-0.04
2023-03-06T00:18:31.228Z,-0.06
2023-03-06T00:21:02.610Z,-0.06
2023-03-06T00:23:33.270Z,-0.07
2023-03-06T00:26:06.488Z,-0.09
2023-03-06T00:28:37.677Z,-0.11
2023-03-06T00:31:08.571Z,-0.12
2023-03-06T00:33:39.365Z,-0.12
2023-03-06T00:36:10.778Z,-0.10
2023-03-06T00:38:41.558Z,-0.09
2023-03-06T00:41:13.224Z,-0.06
2023-03-06T00:43:43.848Z,-0.02
2023-03-06T00:46:14.619Z,0.02
2023-03-06T00:48:45.356Z,0.06
2023-03-06T00:51:16.009Z,0.10
2023-03-06T00:53:46.741Z,0.12
2023-03-06T00:56:19.840Z,0.11
2023-03-06T00:58:50.620Z,0.12
2023-03-06T01:01:21.402Z,0.12
2023-03-06T01:03:52.049Z,0.14
2023-03-06T01:06:22.857Z,0.17
2023-03-06T01:08:53.474Z,0.20
2023-03-06T01:11:24.376Z,0.21
2023-03-06T01:13:55.102Z,0.25
2023-03-06T01:16:25.808Z,0.30
2023-03-06T01:18:56.472Z,0.33
2023-03-06T01:21:28.064Z,0.38
2023-03-06T01:23:58.772Z,0.41
2023-03-06T01:26:29.478Z,0.44
2023-03-06T01:29:00.161Z,0.46
2023-03-06T01:31:30.898Z,0.49
2023-03-06T01:34:01.902Z,0.53
2023-03-06T01:36:32.594Z,0.55
2023-03-06T01:39:03.762Z,0.58
2023-03-06T01:41:32.962Z,0.59
2023-03-06T01:44:04.646Z,0.60
2023-03-06T01:46:37.706Z,0.62
2023-03-06T01:49:15.139Z,0.63
2023-03-06T01:51:52.083Z,0.67
2023-03-06T01:54:26.898Z,0.68
2023-03-06T01:57:03.641Z,0.68
2023-03-06T01:59:36.800Z,0.68
2023-03-06T02:02:09.473Z,0.71
2023-03-06T02:04:41.643Z,0.73
2023-03-06T02:07:14.264Z,0.74
2023-03-06T02:09:45.031Z,0.75
2023-03-06T02:12:18.833Z,0.78
2023-03-06T02:14:50.312Z,0.79
2023-03-06T02:17:22.412Z,0.78
2023-03-06T02:20:00.556Z,0.79
2023-03-06T02:22:37.542Z,0.82
2023-03-06T02:25:15.235Z,0.86
2023-03-06T02:27:46.000Z,0.87
2023-03-06T02:30:19.077Z,0.83
2023-03-06T02:32:56.861Z,0.86
2023-03-06T02:35:29.001Z,0.87
2023-03-06T02:38:04.499Z,0.82
2023-03-06T02:40:35.382Z,0.86
2023-03-06T02:43:06.148Z,0.90
2023-03-06T02:45:39.548Z,0.96
2023-03-06T02:48:10.254Z,1.01
2023-03-06T02:50:41.398Z,1.05
2023-03-06T02:53:11.212Z,1.09
2023-03-06T02:55:41.938Z,1.11
2023-03-06T02:58:12.691Z,1.16
2023-03-06T03:00:43.349Z,1.19
2023-03-06T03:03:14.229Z,1.23
2023-03-06T03:05:44.871Z,1.25
2023-03-06T03:08:15.600Z,1.26
2023-03-06T03:10:46.253Z,1.25
2023-03-06T03:13:16.992Z,1.28
2023-03-06T03:15:57.073Z,1.31
2023-03-06T03:18:28.177Z,1.34
2023-03-06T03:20:57.505Z,1.33
2023-03-06T03:23:28.281Z,1.28
2023-03-06T03:26:08.096Z,1.29
2023-03-06T03:28:39.161Z,1.27
2023-03-06T03:31:11.123Z,1.28
2023-03-06T03:33:42.408Z,1.26
2023-03-06T03:36:11.516Z,1.24
2023-03-06T03:38:42.280Z,1.22
2023-03-06T03:41:13.051Z,1.20
2023-03-06T03:43:43.908Z,1.18
2023-03-06T03:46:14.617Z,1.15
2023-03-06T03:48:45.323Z,1.14
2023-03-06T03:51:16.022Z,1.12
2023-03-06T03:53:46.774Z,1.14
2023-03-06T03:56:17.518Z,1.16
2023-03-06T03:58:48.221Z,1.18
2023-03-06T04:01:18.920Z,1.20
2023-03-06T04:03:49.636Z,1.23
2023-03-06T04:06:20.607Z,1.24
2023-03-06T04:08:51.333Z,1.26
2023-03-06T04:11:22.011Z,1.27
2023-03-06T04:13:52.695Z,1.30
2023-03-06T04:16:23.730Z,1.32
2023-03-06T04:18:54.451Z,1.34
2023-03-06T04:21:25.206Z,1.36
2023-03-06T04:23:56.076Z,1.38
2023-03-06T04:26:26.968Z,1.41
2023-03-06T04:28:57.634Z,1.40
2023-03-06T04:31:28.284Z,1.39
2023-03-06T04:33:58.977Z,1.41
2023-03-06T04:36:33.690Z,1.41
2023-03-06T04:39:05.512Z,1.40
2023-03-06T04:41:36.163Z,1.41
2023-03-06T04:44:07.704Z,1.42
2023-03-06T04:46:38.545Z,1.43
2023-03-06T04:49:09.253Z,1.44
2023-03-06T04:51:39.892Z,1.42
2023-03-06T04:54:10.587Z,1.40
2023-03-06T04:56:41.549Z,1.41
2023-03-06T04:59:12.230Z,1.40
2023-03-06T05:01:42.951Z,1.33
2023-03-06T05:04:13.569Z,1.30
2023-03-06T05:06:44.320Z,1.28
2023-03-06T05:09:15.043Z,1.24
2023-03-06T05:11:45.686Z,1.16
2023-03-06T05:14:16.419Z,1.13
2023-03-06T05:16:47.171Z,1.08
2023-03-06T05:19:17.882Z,1.06
2023-03-06T05:21:48.514Z,1.10
2023-03-06T05:24:19.574Z,1.08
2023-03-06T05:26:48.797Z,0.99
2023-03-06T05:29:19.471Z,0.85
2023-03-06T05:31:50.193Z,0.70
2023-03-06T05:34:20.884Z,0.71
2023-03-06T05:36:51.557Z,0.80
2023-03-06T05:39:22.261Z,0.87
2023-03-06T05:41:52.867Z,0.92
2023-03-06T05:44:23.510Z,0.91
2023-03-06T05:46:54.105Z,0.89
2023-03-06T05:49:24.794Z,0.91
2023-03-06T05:51:55.451Z,0.76
2023-03-06T05:54:26.132Z,0.68
2023-03-06T05:56:56.929Z,0.63
2023-03-06T05:59:28.163Z,0.60
2023-03-06T06:01:59.900Z,0.56
2023-03-06T06:04:30.687Z,0.50
2023-03-06T06:07:01.937Z,0.44
2023-03-06T06:09:32.613Z,0.41
2023-03-06T06:12:04.634Z,0.39
2023-03-06T06:14:36.409Z,0.42
2023-03-06T06:17:07.219Z,0.51
2023-03-06T06:19:38.540Z,0.58
2023-03-06T06:22:09.742Z,0.54
2023-03-06T06:24:38.948Z,0.48
2023-03-06T06:27:10.090Z,0.47
2023-03-06T06:29:39.173Z,0.60
2023-03-06T06:32:09.919Z,0.74
2023-03-06T06:34:40.557Z,0.82
2023-03-06T06:37:13.125Z,0.88
2023-03-06T06:39:43.930Z,0.80
2023-03-06T06:42:30.997Z,0.77
2023-03-06T06:45:04.454Z,0.86
2023-03-06T06:47:35.169Z,0.98
2023-03-06T06:50:15.678Z,1.17
2023-03-06T06:52:46.400Z,1.31
2023-03-06T06:55:17.658Z,1.34
2023-03-06T06:57:48.366Z,1.32
2023-03-06T07:00:20.781Z,1.18
2023-03-06T07:02:51.478Z,1.02
2023-03-06T07:05:22.272Z,0.99
2023-03-06T07:07:53.053Z,0.89
2023-03-06T07:10:24.592Z,0.91
2023-03-06T07:12:55.247Z,1.04
2023-03-06T07:15:26.050Z,1.19
2023-03-06T07:17:56.782Z,1.37
2023-03-06T07:20:28.366Z,1.48
2023-03-06T07:22:59.067Z,1.60
2023-03-06T07:25:29.894Z,1.76
2023-03-06T07:28:00.704Z,1.86
2023-03-06T07:30:32.693Z,1.95
2023-03-06T07:33:03.416Z,1.96
2023-03-06T07:35:34.431Z,2.04
2023-03-06T07:38:05.396Z,2.02
2023-03-06T07:40:36.080Z,1.97
2023-03-06T07:43:18.617Z,1.90
2023-03-06T07:45:57.596Z,1.81
2023-03-06T07:48:28.735Z,1.85
2023-03-06T07:51:01.726Z,1.93
2023-03-06T07:53:33.044Z,2.06
2023-03-06T07:56:05.592Z,2.22
2023-03-06T07:58:36.865Z,2.34
2023-03-06T08:01:09.689Z,2.42
2023-03-06T08:03:40.530Z,2.40
2023-03-06T08:06:13.882Z,2.30
2023-03-06T08:08:46.187Z,2.37
2023-03-06T08:11:19.560Z,2.47
2023-03-06T08:13:50.980Z,2.39
2023-03-06T08:16:23.777Z,2.27
2023-03-06T08:18:54.873Z,2.34
2023-03-06T08:21:24.856Z,2.42
2023-03-06T08:23:55.919Z,2.36
2023-03-06T08:26:27.285Z,2.24
2023-03-06T08:29:00.371Z,2.18
2023-03-06T08:31:35.266Z,2.06
2023-03-06T08:34:07.333Z,1.98
2023-03-06T08:36:40.504Z,2.02
2023-03-06T08:39:11.776Z,2.12
2023-03-06T08:41:43.098Z,2.20
2023-03-06T08:44:13.989Z,2.30
2023-03-06T08:46:44.733Z,2.50
2023-03-06T08:49:15.785Z,2.61
2023-03-06T08:51:46.444Z,2.80
2023-03-06T08:54:17.232Z,2.96
2023-03-06T08:56:48.012Z,3.20
2023-03-06T08:59:18.760Z,3.51
2023-03-06T09:01:49.720Z,3.78
2023-03-06T09:04:20.559Z,4.02
2023-03-06T09:06:51.304Z,4.28
2023-03-06T09:09:22.000Z,4.46
2023-03-06T09:11:52.629Z,4.74
2023-03-06T09:14:23.283Z,5.11
2023-03-06T09:16:54.096Z,5.44
2023-03-06T09:19:24.856Z,5.73
2023-03-06T09:21:55.575Z,5.98
2023-03-06T09:24:26.240Z,6.18
2023-03-06T09:26:56.978Z,6.27
2023-03-06T09:29:28.245Z,6.30
2023-03-06T09:31:59.013Z,6.33
2023-03-06T09:34:29.719Z,6.40
2023-03-06T09:37:01.561Z,6.44
2023-03-06T09:39:32.286Z,6.44
2023-03-06T09:42:03.549Z,6.38
2023-03-06T09:44:34.430Z,6.28
2023-03-06T09:47:38.375Z,6.25
2023-03-06T09:50:18.577Z,6.33
2023-03-06T09:53:03.470Z,6.45
2023-03-06T09:55:36.164Z,6.65
2023-03-06T09:58:15.695Z,6.75
2023-03-06T10:00:55.439Z,6.79
2023-03-06T10:03:31.147Z,6.89
2023-03-06T10:06:09.419Z,6.93
2023-03-06T10:08:51.531Z,6.99
2023-03-06T10:11:29.058Z,7.11
2023-03-06T10:14:13.991Z,7.14
2023-03-06T10:16:44.718Z,7.12
2023-03-06T10:19:18.145Z,7.11
2023-03-06T10:21:58.265Z,7.16
2023-03-06T10:24:46.930Z,7.22
2023-03-06T10:27:38.430Z,7.20
2023-03-06T10:30:32.640Z,7.24
2023-03-06T10:33:08.923Z,7.25
2023-03-06T10:35:48.223Z,7.22
2023-03-06T10:38:23.141Z,7.23
2023-03-06T10:41:06.224Z,7.27
2023-03-06T10:43:38.322Z,7.34
2023-03-06T10:46:10.864Z,7.34
2023-03-06T10:48:43.662Z,7.25
2023-03-06T10:51:19.928Z,7.13
2023-03-06T10:53:53.336Z,6.93
2023-03-06T10:56:32.887Z,6.53
2023-03-06T10:59:15.028Z,6.27
2023-03-06T11:01:47.187Z,5.97
2023-03-06T11:04:29.426Z,5.80
2023-03-06T11:07:16.428Z,5.70
2023-03-06T11:10:01.372Z,5.64
2023-03-06T11:12:33.367Z,5.63
2023-03-06T11:15:19.679Z,5.68
2023-03-06T11:18:00.269Z,5.74
2023-03-06T11:20:49.995Z,5.79
2023-03-06T11:23:29.123Z,5.69
2023-03-06T11:26:05.213Z,5.59
2023-03-06T11:28:42.173Z,5.46
2023-03-06T11:31:16.436Z,5.44
2023-03-06T11:33:52.631Z,5.44
2023-03-06T11:36:30.220Z,5.43
2023-03-06T11:39:02.991Z,5.34
2023-03-06T11:41:40.461Z,5.23
2023-03-06T11:44:18.038Z,5.23
2023-03-06T11:47:03.289Z,5.26
2023-03-06T11:49:43.640Z,5.20
2023-03-06T11:52:23.578Z,5.19
2023-03-06T11:54:56.394Z,5.19
2023-03-06T11:57:35.114Z,5.18
2023-03-06T12:00:19.525Z,5.09
2023-03-06T12:03:12.592Z,5.02
2023-03-06T12:05:50.559Z,4.95
2023-03-06T12:08:46.425Z,4.93
2023-03-06T12:11:23.832Z,4.98
2023-03-06T12:14:10.972Z,5.04
2023-03-06T12:16:53.168Z,5.08
2023-03-06T12:19:37.917Z,5.11
2023-03-06T12:22:31.529Z,5.08
2023-03-06T12:25:22.801Z,4.98
2023-03-06T12:27:54.252Z,4.96
2023-03-06T12:30:40.007Z,4.98
2023-03-06T12:33:22.698Z,4.98
2023-03-06T12:36:16.639Z,4.93
2023-03-06T12:39:09.799Z,4.90
2023-03-06T12:41:54.517Z,4.96
2023-03-06T12:44:51.738Z,4.89
2023-03-06T12:47:26.776Z,4.66
2023-03-06T12:50:00.978Z,4.49
2023-03-06T12:52:33.853Z,4.28
2023-03-06T12:55:08.308Z,4.17
2023-03-06T12:57:38.960Z,4.16
2023-03-06T13:00:43.811Z,4.19
2023-03-06T13:03:21.490Z,4.29
2023-03-06T13:06:12.335Z,4.31
2023-03-06T13:09:14.086Z,4.40
2023-03-06T13:12:02.967Z,4.55
2023-03-06T13:14:56.479Z,4.64
2023-03-06T13:17:36.048Z,4.71
2023-03-06T13:20:29.380Z,4.78
2023-03-06T13:23:20.138Z,4.92
2023-03-06T13:25:51.722Z,4.88
2023-03-06T13:28:38.886Z,4.90
2023-03-06T13:31:21.364Z,4.99
2023-03-06T13:33:59.609Z,5.02
2023-03-06T13:36:33.006Z,5.03
2023-03-06T13:39:12.543Z,5.03
2023-03-06T13:41:58.082Z,4.98
2023-03-06T13:44:49.165Z,4.86
2023-03-06T13:47:32.459Z,4.67
2023-03-06T13:50:17.459Z,4.64
2023-03-06T13:53:01.220Z,4.57
2023-03-06T13:55:44.385Z,4.37
2023-03-06T13:58:32.133Z,4.29
2023-03-06T14:01:31.151Z,4.28
2023-03-06T14:04:36.598Z,4.28
2023-03-06T14:07:21.797Z,4.23
2023-03-06T14:10:01.148Z,4.33
2023-03-06T14:12:35.130Z,4.46
2023-03-06T14:15:17.284Z,4.59
2023-03-06T14:17:57.264Z,4.70
2023-03-06T14:20:35.264Z,4.76
2023-03-06T14:23:25.762Z,4.77
2023-03-06T14:26:08.261Z,4.67
2023-03-06T14:28:38.945Z,4.64
2023-03-06T14:31:16.483Z,4.61
2023-03-06T14:33:53.764Z,4.54
2023-03-06T14:36:28.381Z,4.48
2023-03-06T14:39:02.597Z,4.43
2023-03-06T14:41:35.216Z,4.35
2023-03-06T14:44:17.524Z,4.31
2023-03-06T14:46:50.015Z,4.28
2023-03-06T14:49:22.228Z,4.25
2023-03-06T14:51:54.624Z,4.19
2023-03-06T14:54:29.060Z,4.16
2023-03-06T14:57:04.849Z,4.12
2023-03-06T14:59:41.704Z,4.08
2023-03-06T15:02:17.601Z,4.06
2023-03-06T15:04:51.253Z,4.07
2023-03-06T15:07:27.629Z,4.06
2023-03-06T15:09:59.705Z,4.05
2023-03-06T15:12:38.063Z,4.02
2023-03-06T15:18:28.152Z,4.01
2023-03-06T15:21:09.246Z,3.93
2023-03-06T15:23:42.934Z,3.92
2023-03-06T15:26:29.584Z,3.91
2023-03-06T15:29:09.202Z,3.82
2023-03-06T15:31:41.908Z,3.78
2023-03-06T15:34:21.697Z,3.77
2023-03-06T15:36:54.537Z,3.82
2023-03-06T15:39:36.636Z,3.83
2023-03-06T15:42:18.324Z,3.80
2023-03-06T15:44:53.692Z,3.77
2023-03-06T15:47:24.658Z,3.74
2023-03-06T15:49:55.399Z,3.73
2023-03-06T15:52:26.044Z,3.74
2023-03-06T15:54:56.783Z,3.71
2023-03-06T15:57:28.420Z,3.66
2023-03-06T15:59:59.752Z,3.64
2023-03-06T16:02:30.409Z,3.62
2023-03-06T16:05:01.439Z,3.55
2023-03-06T16:07:32.536Z,3.45
2023-03-06T16:10:01.720Z,3.41
2023-03-06T16:12:32.439Z,3.36
2023-03-06T16:15:03.375Z,3.31
2023-03-06T16:17:34.026Z,3.28
2023-03-06T16:20:14.914Z,3.23
2023-03-06T16:22:46.868Z,3.13
2023-03-06T16:25:18.742Z,3.02
2023-03-06T16:27:52.019Z,2.94
2023-03-06T16:30:34.392Z,2.92
2023-03-06T16:33:06.021Z,2.92
2023-03-06T16:35:36.732Z,2.89
2023-03-06T16:38:07.616Z,2.86
2023-03-06T16:40:39.266Z,2.84
2023-03-06T16:43:10.850Z,2.80
2023-03-06T16:45:42.692Z,2.75
2023-03-06T16:48:16.661Z,2.69
2023-03-06T16:50:47.564Z,2.63
2023-03-06T16:53:18.782Z,2.59
2023-03-06T16:55:49.504Z,2.54
2023-03-06T16:58:20.234Z,2.48
2023-03-06T17:00:51.188Z,2.40
2023-03-06T17:03:21.822Z,2.36
2023-03-06T17:05:52.501Z,2.34
2023-03-06T17:08:23.298Z,2.28
2023-03-06T17:10:53.986Z,2.22
2023-03-06T17:13:24.892Z,2.20
2023-03-06T17:15:56.120Z,2.17
2023-03-06T17:18:27.810Z,2.13
2023-03-06T17:20:59.139Z,2.10
2023-03-06T17:23:28.912Z,2.06
2023-03-06T17:26:08.331Z,2.00
2023-03-06T17:28:39.609Z,1.96
2023-03-06T17:31:15.851Z,1.93
2023-03-06T17:33:47.133Z,1.87
2023-03-06T17:36:18.294Z,1.82
2023-03-06T17:38:47.411Z,1.79
2023-03-06T17:41:18.223Z,1.72
2023-03-06T17:43:49.257Z,1.67
2023-03-06T17:46:18.574Z,1.63
2023-03-06T17:48:49.378Z,1.58
2023-03-06T17:51:20.087Z,1.58
2023-03-06T17:53:50.738Z,1.56
2023-03-06T17:56:21.721Z,1.54
2023-03-06T17:58:52.441Z,1.53
2023-03-06T18:01:24.630Z,1.49
2023-03-06T18:03:55.683Z,1.44
2023-03-06T18:06:25.192Z,1.42
2023-03-06T18:08:56.229Z,1.39
2023-03-06T18:11:25.951Z,1.38
2023-03-06T18:13:56.620Z,1.35
2023-03-06T18:16:28.869Z,1.34
2023-03-06T18:18:59.625Z,1.32
2023-03-06T18:21:30.576Z,1.30
2023-03-06T18:24:01.330Z,1.28
2023-03-06T18:26:32.735Z,1.27
2023-03-06T18:29:04.671Z,1.24
2023-03-06T18:31:37.580Z,1.23
2023-03-06T18:34:11.208Z,1.21
2023-03-06T18:36:42.414Z,1.19
2023-03-06T18:39:14.124Z,1.16
2023-03-06T18:41:44.976Z,1.14
2023-03-06T18:44:16.382Z,1.11
2023-03-06T18:46:47.158Z,1.10
2023-03-06T18:49:18.299Z,1.08
2023-03-06T18:51:51.285Z,1.09
2023-03-06T18:54:22.246Z,1.07
2023-03-06T18:56:51.750Z,1.05
2023-03-06T18:59:22.691Z,1.04
2023-03-06T19:01:53.703Z,1.04
2023-03-06T19:04:23.157Z,1.04
2023-03-06T19:06:54.279Z,1.00
2023-03-06T19:09:24.905Z,0.99
2023-03-06T19:11:57.301Z,0.99
2023-03-06T19:14:28.646Z,0.95
2023-03-06T19:16:59.429Z,0.92
2023-03-06T19:19:30.167Z,0.88
2023-03-06T19:22:01.482Z,0.84
2023-03-06T19:24:32.477Z,0.81
2023-03-06T19:27:03.204Z,0.77
2023-03-06T19:29:33.861Z,0.74
2023-03-06T19:32:05.089Z,0.73
2023-03-06T19:34:35.811Z,0.70
2023-03-06T19:37:06.493Z,0.66
2023-03-06T19:39:37.167Z,0.63
2023-03-06T19:42:07.989Z,0.53
2023-03-06T19:44:38.733Z,0.45
2023-03-06T19:47:09.620Z,0.43
2023-03-06T19:49:40.718Z,0.43
2023-03-06T19:52:09.829Z,0.42
2023-03-06T19:54:41.023Z,0.39
2023-03-06T19:57:10.178Z,0.39
2023-03-06T19:59:40.880Z,0.36
2023-03-06T20:02:12.915Z,0.33
2023-03-06T20:04:43.953Z,0.34
2023-03-06T20:07:13.128Z,0.37
2023-03-06T20:09:44.013Z,0.36
2023-03-06T20:12:15.116Z,0.35
2023-03-06T20:14:45.861Z,0.32
2023-03-06T20:17:16.764Z,0.29
2023-03-06T20:19:46.581Z,0.28
2023-03-06T20:22:17.339Z,0.26
2023-03-06T20:24:48.120Z,0.26
2023-03-06T20:27:18.879Z,0.25
2023-03-06T20:29:49.811Z,0.20
2023-03-06T20:32:20.493Z,0.18
2023-03-06T20:34:51.185Z,0.16
2023-03-06T20:37:21.890Z,0.13
2023-03-06T20:39:52.996Z,0.09
2023-03-06T20:42:22.117Z,0.07
2023-03-06T20:44:53.051Z,0.05
2023-03-06T20:47:23.806Z,0.02
2023-03-06T20:49:54.562Z,-0.02
2023-03-06T20:52:25.175Z,-0.05
2023-03-06T20:54:55.835Z,-0.08
2023-03-06T20:57:26.529Z,-0.11
2023-03-06T20:59:57.141Z,-0.15
2023-03-06T21:02:27.864Z,-0.18
2023-03-06T21:04:58.635Z,-0.21
2023-03-06T21:07:29.379Z,-0.22
2023-03-06T21:10:00.317Z,-0.26
2023-03-06T21:12:30.993Z,-0.40
2023-03-06T21:15:01.679Z,-0.54
2023-03-06T21:17:32.385Z,-0.54
2023-03-06T21:20:03.248Z,-0.54
2023-03-06T21:22:33.911Z,-0.55
2023-03-06T21:25:05.319Z,-0.51
2023-03-06T21:27:36.057Z,-0.42
2023-03-06T21:30:09.041Z,-0.36
2023-03-06T21:32:40.065Z,-0.30
2023-03-06T21:35:10.814Z,-0.23
2023-03-06T21:37:41.564Z,-0.18
2023-03-06T21:40:14.777Z,-0.12
2023-03-06T21:42:45.491Z,-0.07
2023-03-06T21:45:16.734Z,-0.05
2023-03-06T21:47:49.276Z,-0.01
2023-03-06T21:50:20.210Z,-0.05
2023-03-06T21:52:50.948Z,-0.03
2023-03-06T21:55:23.003Z,-0.03
2023-03-06T21:57:54.952Z,-0.07
2023-03-06T22:00:25.859Z,-0.14
2023-03-06T22:02:56.591Z,-0.12
2023-03-06T22:05:27.255Z,-0.07
2023-03-06T22:07:58.008Z,-0.06
2023-03-06T22:10:29.079Z,-0.07
2023-03-06T22:12:58.344Z,-0.02
2023-03-06T22:15:29.005Z,0.03
2023-03-06T22:17:59.716Z,0.07
2023-03-06T22:20:30.452Z,0.10
2023-03-06T22:23:01.110Z,0.05
2023-03-06T22:25:33.802Z,0.01
2023-03-06T22:28:04.503Z,0.03
2023-03-06T22:30:35.207Z,0.06
2023-03-06T22:33:06.064Z,0.04
2023-03-06T22:35:36.832Z,-0.03
2023-03-06T22:38:07.499Z,-0.09
2023-03-06T22:40:38.361Z,-0.07
2023-03-06T22:43:09.025Z,-0.07
2023-03-06T22:45:39.646Z,-0.09
2023-03-06T22:48:11.387Z,-0.10
2023-03-06T22:50:42.077Z,-0.09
2023-03-06T22:53:12.771Z,-0.09
2023-03-06T22:55:43.525Z,-0.13
2023-03-06T22:58:14.174Z,-0.19
2023-03-06T23:00:44.879Z,-0.30
2023-03-06T23:03:15.569Z,-0.34
2023-03-06T23:05:46.188Z,-0.38
2023-03-06T23:08:16.886Z,-0.45
2023-03-06T23:10:47.585Z,-0.43
2023-03-06T23:13:18.215Z,-0.43
2023-03-06T23:15:48.978Z,-0.42
2023-03-06T23:18:19.712Z,-0.45
2023-03-06T23:20:50.363Z,-0.44
2023-03-06T23:23:21.439Z,-0.42
2023-03-06T23:25:50.508Z,-0.40
2023-03-06T23:28:21.545Z,-0.40
2023-03-06T23:30:50.732Z,-0.43
2023-03-06T23:33:21.447Z,-0.47
2023-03-06T23:35:55.527Z,-0.48
2023-03-06T23:38:26.231Z,-0.45
2023-03-06T23:41:01.017Z,-0.42
2023-03-06T23:43:31.974Z,-0.41
2023-03-06T23:46:02.706Z,-0.43
2023-03-06T23:48:33.805Z,-0.49
2023-03-06T23:51:06.131Z,-0.48
2023-03-06T23:53:37.189Z,-0.48
2023-03-06T23:56:06.790Z,-0.49
2023-03-06T23:58:37.624Z,-0.50
